Fort Herkimer, New York
Current Conditions -  °F | °C
As of 4:00 PM on Saturday 20 Dec 2014 (Local Time) from KRME Reporting Station
Overcast Overcast  
Wind Chill: 22°   Ceiling: 2300
Heat Index: 27°   Visibility: 10mi
Dew Point: 19°   Wind: 5mph
Humidity: 72%   Direction: 100°E
Pressure: 30.28"   Gusts: NA
Location:  42.9627°N, 74.9432°W
Report Text: KRME 202100Z 10004KT 10SM OVC023 M03/M07 A3028 RMK AO2 T10281072
Loading
Personal Weather Stations






























Interactive Weather Map New forecast layout! Learn more

10-Day Weather Forecast

Advertisements
Track Severe Weather on mobile